createdAt,value
2023-02-07T00:00:17.810Z,-5.20
2023-02-07T00:02:49.535Z,-5.21
2023-02-07T00:05:16.475Z,-5.23
2023-02-07T00:07:43.548Z,-5.24
2023-02-07T00:10:10.637Z,-5.27
2023-02-07T00:12:37.168Z,-5.25
2023-02-07T00:15:04.640Z,-5.24
2023-02-07T00:17:31.334Z,-5.23
2023-02-07T00:19:58.212Z,-5.20
2023-02-07T00:22:24.901Z,-5.16
2023-02-07T00:24:51.741Z,-5.17
2023-02-07T00:27:18.669Z,-5.20
2023-02-07T00:29:45.426Z,-5.26
2023-02-07T00:32:11.980Z,-5.28
2023-02-07T00:34:38.569Z,-5.29
2023-02-07T00:37:06.172Z,-5.31
2023-02-07T00:39:32.946Z,-5.28
2023-02-07T00:41:59.567Z,-5.30
2023-02-07T00:44:26.380Z,-5.34
2023-02-07T00:46:52.892Z,-5.33
2023-02-07T00:49:19.463Z,-5.37
2023-02-07T00:51:46.112Z,-5.36
2023-02-07T00:54:12.642Z,-5.38
2023-02-07T00:56:39.459Z,-5.36
2023-02-07T00:59:06.163Z,-5.38
2023-02-07T01:01:33.046Z,-5.42
2023-02-07T01:03:59.902Z,-5.45
2023-02-07T01:06:28.113Z,-5.46
2023-02-07T01:08:59.085Z,-5.50
2023-02-07T01:11:26.584Z,-5.54
2023-02-07T01:13:53.625Z,-5.54
2023-02-07T01:16:25.161Z,-5.54
2023-02-07T01:18:51.993Z,-5.54
2023-02-07T01:21:24.518Z,-5.53
2023-02-07T01:23:51.701Z,-5.54
2023-02-07T01:26:18.543Z,-5.56
2023-02-07T01:28:45.100Z,-5.59
2023-02-07T01:31:13.251Z,-5.60
2023-02-07T01:33:39.836Z,-5.58
2023-02-07T01:36:11.813Z,-5.59
2023-02-07T01:38:38.664Z,-5.57
2023-02-07T01:41:05.777Z,-5.59
2023-02-07T01:43:32.638Z,-5.58
2023-02-07T01:45:59.208Z,-5.61
2023-02-07T01:48:36.810Z,-5.63
2023-02-07T01:51:07.612Z,-5.64
2023-02-07T01:53:37.382Z,-5.64
2023-02-07T01:56:07.064Z,-5.66
2023-02-07T01:58:34.306Z,-5.66
2023-02-07T02:01:04.362Z,-5.66
2023-02-07T02:03:30.739Z,-5.69
2023-02-07T02:05:57.604Z,-5.71
2023-02-07T02:08:24.856Z,-5.67
2023-02-07T02:11:29.891Z,-5.73
2023-02-07T02:14:21.376Z,-5.69
2023-02-07T02:16:50.595Z,-5.72
2023-02-07T02:19:37.054Z,-5.70
2023-02-07T02:22:39.084Z,-5.74
2023-02-07T02:25:33.428Z,-5.78
2023-02-07T02:28:11.745Z,-5.80
2023-02-07T02:30:58.286Z,-5.79
2023-02-07T02:33:30.950Z,-5.80
2023-02-07T02:36:21.879Z,-5.88
2023-02-07T02:39:02.849Z,-5.94
2023-02-07T02:41:40.740Z,-5.97
2023-02-07T02:44:25.960Z,-5.97
2023-02-07T02:46:54.359Z,-6.03
2023-02-07T02:49:26.160Z,-6.04
2023-02-07T02:51:52.912Z,-6.05
2023-02-07T02:54:31.120Z,-6.01
2023-02-07T02:57:16.062Z,-5.99
2023-02-07T03:00:07.854Z,-6.00
2023-02-07T03:03:00.600Z,-6.03
2023-02-07T03:05:38.903Z,-6.08
2023-02-07T03:08:28.275Z,-6.12
2023-02-07T03:11:07.875Z,-6.12
2023-02-07T03:13:59.215Z,-6.10
2023-02-07T03:16:37.965Z,-6.08
2023-02-07T03:19:07.866Z,-6.06
2023-02-07T03:21:41.349Z,-6.13
2023-02-07T03:24:15.298Z,-6.19
2023-02-07T03:26:44.754Z,-6.26
2023-02-07T03:29:14.916Z,-6.30
2023-02-07T03:31:45.548Z,-6.34
2023-02-07T03:34:16.834Z,-6.39
2023-02-07T03:36:58.354Z,-6.36
2023-02-07T03:39:25.567Z,-6.37
2023-02-07T03:41:57.494Z,-6.39
2023-02-07T03:44:27.158Z,-6.43
2023-02-07T03:46:54.703Z,-6.46
2023-02-07T03:49:21.715Z,-6.47
2023-02-07T03:51:48.290Z,-6.47
2023-02-07T03:54:15.132Z,-6.47
2023-02-07T03:56:41.822Z,-6.44
2023-02-07T03:59:08.662Z,-6.48
2023-02-07T04:01:40.731Z,-6.46
2023-02-07T04:04:08.007Z,-6.46
2023-02-07T04:06:34.580Z,-6.44
2023-02-07T04:09:01.151Z,-6.38
2023-02-07T04:11:30.723Z,-6.36
2023-02-07T04:13:57.319Z,-6.40
2023-02-07T04:16:24.727Z,-6.39
2023-02-07T04:18:51.292Z,-6.37
2023-02-07T04:21:17.884Z,-6.42
2023-02-07T04:23:44.412Z,-6.49
2023-02-07T04:26:10.956Z,-6.54
2023-02-07T04:28:37.485Z,-6.62
2023-02-07T04:31:04.188Z,-6.66
2023-02-07T04:33:30.716Z,-6.71
2023-02-07T04:36:03.108Z,-6.76
2023-02-07T04:38:30.043Z,-6.81
2023-02-07T04:41:03.421Z,-6.83
2023-02-07T04:43:31.008Z,-6.87
2023-02-07T04:45:57.546Z,-6.86
2023-02-07T04:48:24.248Z,-6.87
2023-02-07T04:50:50.696Z,-6.84
2023-02-07T04:53:17.324Z,-6.84
2023-02-07T04:55:47.389Z,-6.86
2023-02-07T04:58:14.114Z,-6.84
2023-02-07T05:00:40.887Z,-6.82
2023-02-07T05:03:07.378Z,-6.82
2023-02-07T05:05:33.882Z,-6.80
2023-02-07T05:08:00.351Z,-6.77
2023-02-07T05:10:26.870Z,-6.80
2023-02-07T05:12:53.395Z,-6.83
2023-02-07T05:15:20.009Z,-6.81
2023-02-07T05:17:46.679Z,-6.87
2023-02-07T05:20:13.277Z,-6.93
2023-02-07T05:22:39.769Z,-6.97
2023-02-07T05:25:06.589Z,-7.04
2023-02-07T05:27:33.405Z,-7.09
2023-02-07T05:30:00.065Z,-7.13
2023-02-07T05:32:45.398Z,-7.14
2023-02-07T05:35:12.024Z,-7.15
2023-02-07T05:37:38.600Z,-7.07
2023-02-07T05:40:05.642Z,-7.03
2023-02-07T05:42:32.345Z,-7.01
2023-02-07T05:44:58.933Z,-6.94
2023-02-07T05:47:25.494Z,-6.88
2023-02-07T05:49:52.042Z,-6.86
2023-02-07T05:52:18.664Z,-6.91
2023-02-07T05:54:45.160Z,-6.95
2023-02-07T05:57:11.665Z,-6.99
2023-02-07T05:59:38.172Z,-7.03
2023-02-07T06:02:04.690Z,-7.07
2023-02-07T06:04:31.471Z,-7.12
2023-02-07T06:06:57.981Z,-7.20
2023-02-07T06:09:24.521Z,-7.20
2023-02-07T06:11:50.986Z,-7.20
2023-02-07T06:14:17.700Z,-7.24
2023-02-07T06:16:44.184Z,-7.25
2023-02-07T06:19:12.976Z,-7.23
2023-02-07T06:21:46.518Z,-7.23
2023-02-07T06:24:14.286Z,-7.15
2023-02-07T06:26:40.790Z,-7.15
2023-02-07T06:29:07.565Z,-7.10
2023-02-07T06:31:34.111Z,-7.11
2023-02-07T06:34:00.671Z,-7.11
2023-02-07T06:36:27.188Z,-7.13
2023-02-07T06:38:55.522Z,-7.10
2023-02-07T06:41:22.836Z,-7.08
2023-02-07T06:43:49.392Z,-7.07
2023-02-07T06:46:16.117Z,-7.06
2023-02-07T06:48:42.741Z,-7.02
2023-02-07T06:51:09.397Z,-7.03
2023-02-07T06:53:35.917Z,-7.04
2023-02-07T06:56:02.639Z,-7.02
2023-02-07T06:58:29.129Z,-6.98
2023-02-07T07:00:55.653Z,-6.96
2023-02-07T07:03:26.992Z,-6.94
2023-02-07T07:05:53.644Z,-6.86
2023-02-07T07:08:20.422Z,-6.81
2023-02-07T07:10:46.963Z,-6.74
2023-02-07T07:13:13.523Z,-6.65
2023-02-07T07:15:40.276Z,-6.54
2023-02-07T07:18:06.986Z,-6.39
2023-02-07T07:20:33.557Z,-6.19
2023-02-07T07:23:00.036Z,-5.98
2023-02-07T07:25:26.495Z,-5.79
2023-02-07T07:27:53.554Z,-5.59
2023-02-07T07:30:20.138Z,-5.33
2023-02-07T07:32:46.473Z,-5.10
2023-02-07T07:35:12.925Z,-4.85
2023-02-07T07:37:39.377Z,-4.64
2023-02-07T07:40:06.047Z,-4.46
2023-02-07T07:42:32.530Z,-4.21
2023-02-07T07:44:58.939Z,-3.95
2023-02-07T07:47:27.313Z,-3.72
2023-02-07T07:49:54.063Z,-3.37
2023-02-07T07:52:20.514Z,-2.91
2023-02-07T07:54:46.905Z,-2.57
2023-02-07T07:57:13.423Z,-2.23
2023-02-07T07:59:39.862Z,-1.92
2023-02-07T08:02:06.598Z,-1.47
2023-02-07T08:04:33.051Z,-1.42
2023-02-07T08:07:00.714Z,-1.17
2023-02-07T08:09:27.090Z,-1.24
2023-02-07T08:11:53.576Z,-1.10
2023-02-07T08:14:19.991Z,-0.58
2023-02-07T08:16:46.400Z,-0.27
2023-02-07T08:19:12.757Z,-0.17
2023-02-07T08:21:39.168Z,-0.15
2023-02-07T08:24:05.659Z,0.18
2023-02-07T08:26:32.029Z,0.40
2023-02-07T08:28:58.452Z,0.63
2023-02-07T08:31:24.938Z,1.06
2023-02-07T08:33:51.885Z,1.31
2023-02-07T08:36:18.639Z,1.03
2023-02-07T08:38:45.062Z,1.11
2023-02-07T08:41:11.477Z,1.38
2023-02-07T08:43:38.231Z,1.82
2023-02-07T08:46:05.402Z,1.69
2023-02-07T08:48:31.884Z,1.54
2023-02-07T08:50:58.749Z,1.16
2023-02-07T08:53:25.352Z,1.32
2023-02-07T08:55:52.059Z,1.67
2023-02-07T08:58:18.644Z,1.56
2023-02-07T09:00:45.482Z,1.63
2023-02-07T09:18:12.796Z,1.96
2023-02-07T09:20:40.282Z,2.14
2023-02-07T09:23:19.557Z,2.27
2023-02-07T09:25:47.378Z,2.75
2023-02-07T09:28:13.948Z,3.37
2023-02-07T09:31:17.148Z,3.59
2023-02-07T09:33:45.693Z,4.21
2023-02-07T09:36:31.010Z,4.46
2023-02-07T09:38:58.239Z,4.92
2023-02-07T09:42:05.532Z,5.37
2023-02-07T10:11:04.484Z,6.59
2023-02-07T10:17:16.588Z,5.50
2023-02-07T10:23:54.622Z,4.93
2023-02-07T10:26:41.041Z,5.27
2023-02-07T10:29:18.105Z,5.11
2023-02-07T10:31:47.465Z,5.38
2023-02-07T10:34:15.644Z,5.46
2023-02-07T10:36:44.694Z,4.90
2023-02-07T10:39:20.170Z,5.15
2023-02-07T10:41:46.578Z,5.74
2023-02-07T10:44:15.599Z,5.89
2023-02-07T10:46:43.840Z,6.10
2023-02-07T10:49:25.191Z,6.22
2023-02-07T10:51:54.894Z,6.18
2023-02-07T10:54:24.342Z,6.18
2023-02-07T10:56:52.890Z,6.47
2023-02-07T10:59:36.531Z,6.65
2023-02-07T11:02:22.904Z,6.89
2023-02-07T11:04:49.415Z,6.82
2023-02-07T11:07:15.884Z,7.24
2023-02-07T11:09:42.298Z,6.69
2023-02-07T11:12:16.417Z,6.94
2023-02-07T11:14:58.706Z,6.96
2023-02-07T11:17:25.219Z,7.04
2023-02-07T11:19:51.674Z,6.64
2023-02-07T11:22:20.154Z,7.22
2023-02-07T11:24:47.199Z,7.12
2023-02-07T11:27:15.658Z,7.37
2023-02-07T11:29:57.411Z,7.43
2023-02-07T11:32:25.376Z,8.00
2023-02-07T11:38:13.916Z,8.05
2023-02-07T11:44:34.498Z,7.84
2023-02-07T11:47:04.701Z,8.25
2023-02-07T11:52:57.152Z,8.60
2023-02-07T11:58:52.192Z,9.90
2023-02-07T12:04:46.664Z,8.52
2023-02-07T12:18:01.926Z,9.53
2023-02-07T12:24:27.500Z,9.99
2023-02-07T13:02:51.308Z,9.51
2023-02-07T13:05:26.852Z,9.18
2023-02-07T13:08:20.449Z,9.08
2023-02-07T13:18:01.510Z,9.27
2023-02-07T13:24:01.650Z,10.60
2023-02-07T13:26:28.422Z,9.54
2023-02-07T13:28:56.927Z,8.13
2023-02-07T13:31:35.782Z,8.39
2023-02-07T13:34:03.439Z,8.12
2023-02-07T13:36:35.600Z,8.17
2023-02-07T13:39:20.121Z,8.29
2023-02-07T13:42:06.596Z,9.37
2023-02-07T13:44:51.614Z,7.98
2023-02-07T13:47:40.425Z,8.00
2023-02-07T13:50:25.416Z,7.61
2023-02-07T13:56:42.625Z,9.93
2023-02-07T13:59:42.590Z,9.98
2023-02-07T14:02:22.212Z,9.13
2023-02-07T14:04:58.862Z,11.51
2023-02-07T14:07:29.703Z,12.22
2023-02-07T14:13:20.568Z,15.52
2023-02-07T14:15:47.033Z,14.94
2023-02-07T14:18:40.771Z,12.80
2023-02-07T14:21:20.043Z,9.97
2023-02-07T14:24:01.464Z,8.23
2023-02-07T14:26:40.044Z,5.86
2023-02-07T14:29:59.472Z,4.15
2023-02-07T14:36:05.628Z,2.08
2023-02-07T14:38:35.020Z,1.55
2023-02-07T14:41:11.197Z,1.38
2023-02-07T14:43:54.311Z,1.22
2023-02-07T14:46:38.158Z,0.99
2023-02-07T14:49:07.650Z,0.79
2023-02-07T14:51:41.500Z,0.57
2023-02-07T14:54:27.914Z,0.45
2023-02-07T14:57:03.800Z,0.49
2023-02-07T14:59:43.754Z,0.37
2023-02-07T15:02:28.599Z,0.30
2023-02-07T15:04:55.022Z,0.31
2023-02-07T15:07:21.355Z,0.26
2023-02-07T15:09:47.869Z,0.19
2023-02-07T15:12:27.032Z,0.19
2023-02-07T15:14:56.966Z,0.10
2023-02-07T15:17:28.845Z,0.05
2023-02-07T15:19:59.936Z,-0.03
2023-02-07T15:22:28.261Z,-0.09
2023-02-07T15:24:58.564Z,-0.12
2023-02-07T15:27:27.316Z,-0.16
2023-02-07T15:29:55.350Z,-0.18
2023-02-07T15:32:22.853Z,-0.23
2023-02-07T15:34:49.611Z,-0.25
2023-02-07T15:37:19.410Z,-0.32
2023-02-07T15:39:46.106Z,-0.38
2023-02-07T15:42:16.511Z,-0.46
2023-02-07T15:44:47.997Z,-0.55
2023-02-07T15:47:29.456Z,-0.65
2023-02-07T15:50:00.493Z,-0.74
2023-02-07T15:52:46.455Z,-0.84
2023-02-07T15:55:17.825Z,-0.90
2023-02-07T15:57:44.807Z,-0.96
2023-02-07T16:00:17.140Z,-1.02
2023-02-07T16:02:48.167Z,-1.07
2023-02-07T16:05:22.648Z,-1.13
2023-02-07T16:07:49.138Z,-1.19
2023-02-07T16:10:20.244Z,-1.25
2023-02-07T16:12:52.844Z,-1.32
2023-02-07T16:15:22.106Z,-1.39
2023-02-07T16:17:48.491Z,-1.45
2023-02-07T16:20:15.659Z,-1.47
2023-02-07T16:22:43.810Z,-1.54
2023-02-07T16:25:15.271Z,-1.62
2023-02-07T16:27:43.810Z,-1.69
2023-02-07T16:30:15.286Z,-1.73
2023-02-07T16:32:41.725Z,-1.79
2023-02-07T16:35:16.206Z,-1.87
2023-02-07T16:37:42.575Z,-1.95
2023-02-07T16:40:09.611Z,-2.04
2023-02-07T16:42:36.148Z,-2.08
2023-02-07T16:45:02.483Z,-2.14
2023-02-07T16:47:28.865Z,-2.20
2023-02-07T16:49:55.260Z,-2.27
2023-02-07T16:52:21.707Z,-2.33
2023-02-07T16:54:48.166Z,-2.40
2023-02-07T16:57:15.117Z,-2.46
2023-02-07T16:59:41.730Z,-2.51
2023-02-07T17:02:14.981Z,-2.58
2023-02-07T17:04:41.424Z,-2.65
2023-02-07T17:07:09.909Z,-2.72
2023-02-07T17:09:36.323Z,-2.79
2023-02-07T17:12:02.899Z,-2.83
2023-02-07T17:14:29.535Z,-2.87
2023-02-07T17:16:56.154Z,-2.88
2023-02-07T17:19:23.667Z,-2.90
2023-02-07T17:21:50.833Z,-2.94
2023-02-07T17:24:17.488Z,-2.99
2023-02-07T17:26:46.066Z,-3.05
2023-02-07T17:29:13.278Z,-3.09
2023-02-07T17:31:40.232Z,-3.19
2023-02-07T17:34:06.680Z,-3.28
2023-02-07T17:36:34.238Z,-3.35
2023-02-07T17:39:01.135Z,-3.43
2023-02-07T17:41:27.592Z,-3.49
2023-02-07T17:43:54.270Z,-3.53
2023-02-07T17:46:22.175Z,-3.60
2023-02-07T17:48:50.862Z,-3.67
2023-02-07T17:51:18.519Z,-3.77
2023-02-07T17:53:45.052Z,-3.82
2023-02-07T17:56:19.181Z,-3.85
2023-02-07T17:58:45.577Z,-3.91
2023-02-07T18:01:12.078Z,-3.96
2023-02-07T18:03:38.592Z,-4.02
2023-02-07T18:06:05.091Z,-4.06
2023-02-07T18:08:31.510Z,-4.11
2023-02-07T18:11:01.497Z,-4.14
2023-02-07T18:13:27.974Z,-4.16
2023-02-07T18:15:54.766Z,-4.22
2023-02-07T18:18:21.173Z,-4.28
2023-02-07T18:20:47.531Z,-4.32
2023-02-07T18:23:15.031Z,-4.36
2023-02-07T18:25:46.383Z,-4.41
2023-02-07T18:28:14.206Z,-4.40
2023-02-07T18:30:40.988Z,-4.37
2023-02-07T18:33:07.624Z,-4.41
2023-02-07T18:35:34.059Z,-4.42
2023-02-07T18:38:00.926Z,-4.49
2023-02-07T18:40:27.409Z,-4.59
2023-02-07T18:42:53.938Z,-4.67
2023-02-07T18:45:20.356Z,-4.73
2023-02-07T18:47:48.352Z,-4.78
2023-02-07T18:50:15.188Z,-4.83
2023-02-07T18:52:41.571Z,-4.89
2023-02-07T18:55:08.414Z,-4.94
2023-02-07T18:57:34.901Z,-4.96
2023-02-07T19:00:01.645Z,-4.99
2023-02-07T19:02:28.196Z,-5.03
2023-02-07T19:04:54.605Z,-5.05
2023-02-07T19:07:21.025Z,-5.11
2023-02-07T19:09:47.446Z,-5.11
2023-02-07T19:12:14.267Z,-5.21
2023-02-07T19:14:40.689Z,-5.25
2023-02-07T19:17:07.069Z,-5.31
2023-02-07T19:19:33.887Z,-5.37
2023-02-07T19:22:00.558Z,-5.42
2023-02-07T19:24:27.491Z,-5.47
2023-02-07T19:26:56.077Z,-5.52
2023-02-07T19:29:28.138Z,-5.54
2023-02-07T19:32:02.228Z,-5.60
2023-02-07T19:34:28.674Z,-5.65
2023-02-07T19:36:55.190Z,-5.64
2023-02-07T19:39:21.823Z,-5.63
2023-02-07T19:41:48.647Z,-5.69
2023-02-07T19:44:15.074Z,-5.76
2023-02-07T19:46:41.605Z,-5.86
2023-02-07T19:49:10.140Z,-5.83
2023-02-07T19:51:38.240Z,-5.84
2023-02-07T19:54:04.754Z,-5.90
2023-02-07T19:56:34.696Z,-5.93
2023-02-07T19:59:03.066Z,-5.96
2023-02-07T20:01:30.352Z,-6.00
2023-02-07T20:03:58.261Z,-6.04
2023-02-07T20:06:28.378Z,-6.06
2023-02-07T20:08:55.410Z,-6.09
2023-02-07T20:11:22.197Z,-6.13
2023-02-07T20:13:50.785Z,-6.13
2023-02-07T20:16:18.694Z,-6.20
2023-02-07T20:18:45.121Z,-6.27
2023-02-07T20:21:14.381Z,-6.21
2023-02-07T20:23:44.100Z,-6.32
2023-02-07T20:26:12.086Z,-6.40
2023-02-07T20:28:38.578Z,-6.47
2023-02-07T20:31:11.944Z,-6.47
2023-02-07T20:33:39.115Z,-6.43
2023-02-07T20:36:06.217Z,-6.46
2023-02-07T20:38:32.924Z,-6.44
2023-02-07T20:41:06.794Z,-6.49
2023-02-07T20:43:33.329Z,-6.57
2023-02-07T20:46:03.892Z,-6.61
2023-02-07T20:48:30.273Z,-6.58
2023-02-07T20:50:57.508Z,-6.60
2023-02-07T20:53:23.906Z,-6.58
2023-02-07T20:55:50.328Z,-6.63
2023-02-07T20:58:17.682Z,-6.68
2023-02-07T21:00:44.157Z,-6.75
2023-02-07T21:03:10.583Z,-6.78
2023-02-07T21:05:38.211Z,-6.82
2023-02-07T21:08:04.664Z,-6.81
2023-02-07T21:10:31.234Z,-6.82
2023-02-07T21:12:59.189Z,-6.85
2023-02-07T21:15:25.607Z,-6.86
2023-02-07T21:17:51.994Z,-6.92
2023-02-07T21:20:18.443Z,-6.95
2023-02-07T21:22:44.857Z,-6.99
2023-02-07T21:25:11.253Z,-7.04
2023-02-07T21:27:38.662Z,-7.05
2023-02-07T21:30:05.683Z,-7.09
2023-02-07T21:32:32.199Z,-7.13
2023-02-07T21:34:58.654Z,-7.15
2023-02-07T21:37:25.032Z,-7.15
2023-02-07T21:39:51.449Z,-7.18
2023-02-07T21:42:17.822Z,-7.22
2023-02-07T21:44:44.445Z,-7.26
2023-02-07T21:47:10.825Z,-7.33
2023-02-07T21:49:37.655Z,-7.37
2023-02-07T21:52:04.145Z,-7.41
2023-02-07T21:54:30.485Z,-7.46
2023-02-07T21:56:56.988Z,-7.52
2023-02-07T21:59:23.385Z,-7.54
2023-02-07T22:01:50.245Z,-7.52
2023-02-07T22:04:16.862Z,-7.49
2023-02-07T22:06:44.314Z,-7.53
2023-02-07T22:09:12.078Z,-7.51
2023-02-07T22:11:38.580Z,-7.46
2023-02-07T22:14:05.106Z,-7.52
2023-02-07T22:16:31.882Z,-7.57
2023-02-07T22:18:59.411Z,-7.62
2023-02-07T22:21:27.486Z,-7.70
2023-02-07T22:23:54.335Z,-7.74
2023-02-07T22:26:21.838Z,-7.77
2023-02-07T22:28:48.675Z,-7.81
2023-02-07T22:31:19.751Z,-7.82
2023-02-07T22:33:46.774Z,-7.85
2023-02-07T22:36:20.546Z,-7.90
2023-02-07T22:38:47.454Z,-7.88
2023-02-07T22:41:13.936Z,-7.88
2023-02-07T22:43:40.878Z,-7.91
2023-02-07T22:46:08.521Z,-7.96
2023-02-07T22:48:35.458Z,-8.02
2023-02-07T22:51:11.155Z,-8.08
2023-02-07T22:53:37.570Z,-8.11
2023-02-07T22:56:04.153Z,-8.14
2023-02-07T22:58:30.801Z,-8.14
2023-02-07T23:00:57.190Z,-8.12
2023-02-07T23:03:23.638Z,-8.13
2023-02-07T23:05:50.032Z,-8.15
2023-02-07T23:08:16.407Z,-8.16
2023-02-07T23:10:43.588Z,-8.18
2023-02-07T23:13:09.988Z,-8.13
2023-02-07T23:15:36.518Z,-8.14
2023-02-07T23:18:03.788Z,-8.13
2023-02-07T23:20:30.190Z,-8.16
2023-02-07T23:22:56.548Z,-8.15
2023-02-07T23:25:22.967Z,-8.18
2023-02-07T23:27:49.638Z,-8.19
2023-02-07T23:30:16.080Z,-8.21
2023-02-07T23:32:42.559Z,-8.22
2023-02-07T23:35:09.477Z,-8.24
2023-02-07T23:37:36.119Z,-8.24
2023-02-07T23:40:02.702Z,-8.29
2023-02-07T23:42:29.076Z,-8.26
2023-02-07T23:44:55.599Z,-8.28
2023-02-07T23:47:22.014Z,-8.31
2023-02-07T23:49:48.356Z,-8.34
2023-02-07T23:52:14.734Z,-8.33
2023-02-07T23:54:41.161Z,-8.29
2023-02-07T23:57:07.738Z,-8.29
2023-02-07T23:59:34.874Z,-8.33
